createdAt,value
2023-04-18T00:01:25.038Z,100827.09
2023-04-18T00:03:52.782Z,100777.66
2023-04-18T00:06:22.327Z,100838.13
2023-04-18T00:08:49.404Z,100915.78
2023-04-18T00:11:16.439Z,100928.13
2023-04-18T00:13:43.626Z,100828.56
2023-04-18T00:16:10.588Z,100789.59
2023-04-18T00:18:39.998Z,100867.72
2023-04-18T00:21:26.873Z,100877.72
2023-04-18T00:24:27.813Z,100879.00
2023-04-18T00:27:08.594Z,100922.09
2023-04-18T00:29:35.620Z,100847.19
2023-04-18T00:32:02.614Z,100845.88
2023-04-18T00:34:30.818Z,100782.41
2023-04-18T00:36:57.832Z,100879.00
2023-04-18T00:39:24.842Z,100822.84
2023-04-18T00:41:51.948Z,100824.59
2023-04-18T00:44:18.854Z,100835.34
2023-04-18T00:46:45.970Z,100877.59
2023-04-18T00:49:13.217Z,100908.88
2023-04-18T00:51:40.956Z,100674.56
2023-04-18T00:54:08.569Z,100922.31
2023-04-18T00:56:36.281Z,100907.63
2023-04-18T00:59:03.908Z,100773.16
2023-04-18T01:01:31.006Z,100886.69
2023-04-18T01:03:58.156Z,100863.25
2023-04-18T01:06:27.457Z,100733.91
2023-04-18T01:08:56.757Z,100849.22
2023-04-18T01:11:25.273Z,100895.63
2023-04-18T01:14:06.086Z,100799.50
2023-04-18T01:16:37.263Z,100759.28
2023-04-18T01:19:06.135Z,100874.69
2023-04-18T01:21:50.029Z,100831.94
2023-04-18T01:24:50.929Z,100888.94
2023-04-18T01:27:31.721Z,100839.19
2023-04-18T01:30:00.312Z,100823.53
2023-04-18T01:32:30.709Z,100845.09
2023-04-18T01:35:17.867Z,100885.31
2023-04-18T01:37:58.731Z,100899.50
2023-04-18T01:40:27.592Z,100857.31
2023-04-18T01:42:54.576Z,100884.75
2023-04-18T01:45:22.569Z,100856.06
2023-04-18T01:47:49.704Z,100806.56
2023-04-18T01:50:16.748Z,100835.91
2023-04-18T01:52:43.900Z,100838.16
2023-04-18T01:55:11.093Z,100676.38
2023-04-18T01:57:38.194Z,100726.81
2023-04-18T02:00:06.879Z,100873.75
2023-04-18T02:02:43.828Z,100869.06
2023-04-18T02:05:11.153Z,100779.22
2023-04-18T02:07:42.920Z,100811.22
2023-04-18T02:10:11.071Z,100866.84
2023-04-18T02:12:38.527Z,100843.38
2023-04-18T02:15:06.848Z,100716.19
2023-04-18T02:17:36.437Z,100850.13
2023-04-18T02:20:17.882Z,100866.84
2023-04-18T02:23:09.337Z,100822.09
2023-04-18T02:25:36.341Z,100865.44
2023-04-18T02:28:03.482Z,100847.81
2023-04-18T02:30:31.470Z,100816.97
2023-04-18T02:33:01.294Z,100853.25
2023-04-18T02:35:29.192Z,100850.88
2023-04-18T02:37:56.552Z,100844.31
2023-04-18T02:40:23.581Z,100784.81
2023-04-18T02:42:50.782Z,100891.88
2023-04-18T02:45:17.980Z,100753.16
2023-04-18T02:47:54.751Z,100720.94
2023-04-18T02:50:24.724Z,100782.19
2023-04-18T02:52:53.805Z,100848.81
2023-04-18T02:55:24.493Z,100827.16
2023-04-18T02:57:55.372Z,100859.19
2023-04-18T03:00:42.212Z,100864.63
2023-04-18T03:04:01.886Z,100837.63
2023-04-18T03:07:06.920Z,100884.22
2023-04-18T03:09:48.606Z,100858.94
2023-04-18T03:12:20.140Z,100836.81
2023-04-18T03:14:47.536Z,100696.59
2023-04-18T03:17:15.170Z,100873.44
2023-04-18T03:19:47.201Z,100865.56
2023-04-18T03:22:35.912Z,100862.16
2023-04-18T03:25:17.644Z,100885.59
2023-04-18T03:27:50.589Z,100798.94
2023-04-18T03:30:21.009Z,100878.06
2023-04-18T03:32:56.268Z,100887.09
2023-04-18T03:35:23.620Z,100831.38
2023-04-18T03:37:50.893Z,100793.41
2023-04-18T03:40:26.313Z,100880.00
2023-04-18T03:42:57.157Z,100794.16
2023-04-18T03:45:24.147Z,100861.66
2023-04-18T03:47:51.307Z,100888.81
2023-04-18T03:50:19.165Z,100851.31
2023-04-18T03:52:47.742Z,100878.41
2023-04-18T03:55:16.849Z,100848.25
2023-04-18T03:57:43.798Z,100840.59
2023-04-18T04:00:16.760Z,100850.25
2023-04-18T04:02:44.127Z,100875.13
2023-04-18T04:05:18.139Z,100723.31
2023-04-18T04:07:45.552Z,100844.47
2023-04-18T04:10:12.909Z,100765.44
2023-04-18T04:12:39.784Z,100813.34
2023-04-18T04:15:07.214Z,100826.81
2023-04-18T04:17:35.528Z,100809.94
2023-04-18T04:20:23.935Z,100876.28
2023-04-18T04:23:35.925Z,100851.31
2023-04-18T04:26:27.674Z,100831.28
2023-04-18T04:29:03.713Z,100819.16
2023-04-18T04:31:32.610Z,100839.47
2023-04-18T04:33:59.532Z,100855.25
2023-04-18T04:36:27.329Z,100889.84
2023-04-18T04:38:57.317Z,100855.16
2023-04-18T04:41:32.403Z,100869.28
2023-04-18T04:43:59.722Z,100857.31
2023-04-18T04:46:30.676Z,100882.84
2023-04-18T04:49:19.959Z,100882.75
2023-04-18T04:52:02.009Z,100897.19
2023-04-18T04:54:29.527Z,100902.28
2023-04-18T04:56:56.784Z,100898.75
2023-04-18T04:59:23.740Z,100867.22
2023-04-18T05:02:11.020Z,100903.97
2023-04-18T05:04:51.623Z,100866.38
2023-04-18T05:07:18.526Z,100898.81
2023-04-18T05:09:45.701Z,100880.16
2023-04-18T05:12:12.612Z,100785.47
2023-04-18T05:14:59.980Z,100873.72
2023-04-18T05:18:00.994Z,100831.91
2023-04-18T05:21:01.972Z,100889.47
2023-04-18T05:23:42.663Z,100870.44
2023-04-18T05:26:09.563Z,100887.38
2023-04-18T05:28:36.513Z,100914.09
2023-04-18T05:31:24.050Z,100865.94
2023-04-18T05:34:25.039Z,100868.81
2023-04-18T05:37:05.783Z,100895.13
2023-04-18T05:39:53.001Z,100879.91
2023-04-18T05:42:33.633Z,100922.44
2023-04-18T05:45:00.756Z,100875.47
2023-04-18T05:47:48.045Z,100912.88
2023-04-18T05:50:49.009Z,100933.13
2023-04-18T05:53:29.593Z,100946.25
2023-04-18T05:55:57.703Z,100946.72
2023-04-18T05:58:24.652Z,100874.63
2023-04-18T06:00:52.960Z,100922.47
2023-04-18T06:03:40.497Z,100942.25
2023-04-18T06:06:21.262Z,100941.31
2023-04-18T06:08:48.231Z,100944.00
2023-04-18T06:11:15.539Z,100836.84
2023-04-18T06:13:43.040Z,100923.84
2023-04-18T06:16:10.070Z,100951.16
2023-04-18T06:18:37.094Z,100954.81
2023-04-18T06:21:24.054Z,100952.66
2023-04-18T06:24:04.594Z,100903.06
2023-04-18T06:26:32.110Z,100887.09
2023-04-18T06:28:59.103Z,100953.28
2023-04-18T06:31:46.023Z,100950.94
2023-04-18T06:34:26.723Z,100924.06
2023-04-18T06:36:54.093Z,100930.16
2023-04-18T06:39:21.357Z,100971.19
2023-04-18T06:41:49.359Z,100978.13
2023-04-18T06:44:27.412Z,100974.69
2023-04-18T06:46:55.077Z,100974.00
2023-04-18T06:49:26.237Z,100895.41
2023-04-18T06:51:53.683Z,100948.56
2023-04-18T06:54:20.583Z,100945.28
2023-04-18T06:56:47.713Z,100877.31
2023-04-18T06:59:14.956Z,100965.78
2023-04-18T07:02:02.057Z,100984.31
2023-04-18T07:05:03.033Z,100959.31
2023-04-18T07:08:04.012Z,100888.41
2023-04-18T07:10:44.791Z,100977.88
2023-04-18T07:13:32.063Z,100949.38
2023-04-18T07:16:16.138Z,100934.13
2023-04-18T07:19:03.084Z,100970.31
2023-04-18T07:22:04.091Z,100916.84
2023-04-18T07:24:44.720Z,100970.88
2023-04-18T07:27:11.698Z,100947.91
2023-04-18T07:29:38.721Z,100982.94
2023-04-18T07:32:08.173Z,100984.66
2023-04-18T07:34:36.304Z,100936.06
2023-04-18T07:37:03.496Z,100996.19
2023-04-18T07:39:44.069Z,100846.75
2023-04-18T07:42:34.608Z,100968.38
2023-04-18T07:45:01.536Z,100985.69
2023-04-18T07:47:49.099Z,100989.91
2023-04-18T07:50:50.074Z,100980.16
2023-04-18T07:53:30.625Z,100983.47
2023-04-18T07:56:19.055Z,100972.91
2023-04-18T07:58:59.656Z,100975.78
2023-04-18T08:01:27.332Z,100946.63
2023-04-18T08:03:56.299Z,100996.06
2023-04-18T08:06:23.478Z,100982.03
2023-04-18T08:08:50.403Z,100977.44
2023-04-18T08:11:17.330Z,101004.72
2023-04-18T08:13:44.346Z,100878.50
2023-04-18T08:16:11.372Z,100925.19
2023-04-18T08:18:58.085Z,100995.00
2023-04-18T08:21:59.085Z,100861.75
2023-04-18T08:24:40.122Z,100982.00
2023-04-18T08:27:07.182Z,100969.63
2023-04-18T08:29:34.285Z,100949.22
2023-04-18T08:32:01.417Z,100967.00
2023-04-18T08:34:29.384Z,101001.31
2023-04-18T08:36:56.749Z,100974.69
2023-04-18T08:39:25.237Z,100958.75
2023-04-18T08:41:59.715Z,100943.09
2023-04-18T08:44:30.697Z,101008.53
2023-04-18T08:46:57.787Z,101016.22
2023-04-18T08:49:25.295Z,101008.09
2023-04-18T08:51:53.150Z,100990.38
2023-04-18T08:54:22.522Z,101010.13
2023-04-18T08:57:10.512Z,101003.19
2023-04-18T08:59:37.504Z,101021.63
2023-04-18T09:02:08.941Z,101002.94
2023-04-18T09:04:45.179Z,100973.09
2023-04-18T09:07:17.121Z,100945.81
2023-04-18T09:10:06.108Z,101016.31
2023-04-18T09:12:55.446Z,100985.59
2023-04-18T09:15:24.128Z,101012.03
2023-04-18T09:17:56.341Z,100945.66
2023-04-18T09:20:47.101Z,101018.88
2023-04-18T09:23:48.134Z,100969.59
2023-04-18T09:26:36.356Z,100961.72
2023-04-18T09:29:03.775Z,100928.03
2023-04-18T09:31:30.857Z,101017.41
2023-04-18T09:33:57.985Z,100997.97
2023-04-18T09:36:31.434Z,101006.81
2023-04-18T09:38:58.513Z,100974.06
2023-04-18T09:41:25.465Z,100990.88
2023-04-18T09:44:11.662Z,100998.81
2023-04-18T09:46:39.536Z,100983.81
2023-04-18T09:49:07.907Z,100951.97
2023-04-18T09:51:36.752Z,100995.25
2023-04-18T09:54:05.626Z,100994.34
2023-04-18T09:56:34.703Z,100897.06
2023-04-18T09:59:08.530Z,100982.06
2023-04-18T10:01:36.127Z,100998.84
2023-04-18T10:04:04.607Z,100923.69
2023-04-18T10:06:53.155Z,100933.38
2023-04-18T10:09:55.165Z,100992.63
2023-04-18T10:12:37.339Z,100981.03
2023-04-18T10:15:06.710Z,100982.88
2023-04-18T10:18:02.844Z,100932.44
2023-04-18T10:20:55.148Z,100966.13
2023-04-18T10:23:39.937Z,100982.03
2023-04-18T10:26:08.438Z,100984.66
2023-04-18T10:28:55.096Z,100921.94
2023-04-18T10:31:23.977Z,100981.16
2023-04-18T10:34:05.134Z,100980.19
2023-04-18T10:37:13.001Z,100982.72
2023-04-18T10:39:50.070Z,100973.00
2023-04-18T10:42:17.577Z,100959.03
2023-04-18T10:45:17.222Z,100971.34
2023-04-18T10:47:44.440Z,100951.06
2023-04-18T10:50:31.225Z,100974.88
2023-04-18T10:53:32.167Z,100933.88
2023-04-18T10:56:14.614Z,100921.00
2023-04-18T10:58:42.014Z,100884.75
2023-04-18T11:01:12.474Z,100913.91
2023-04-18T11:03:59.319Z,100933.84
2023-04-18T11:06:51.283Z,100957.84
2023-04-18T11:09:18.228Z,100939.09
2023-04-18T11:11:45.236Z,100945.75
2023-04-18T11:14:32.224Z,100905.34
2023-04-18T11:17:32.841Z,100950.25
2023-04-18T11:20:22.204Z,100950.44
2023-04-18T11:23:20.710Z,100946.69
2023-04-18T11:25:54.582Z,100937.59
2023-04-18T11:28:22.649Z,100919.41
2023-04-18T11:30:49.633Z,100876.41
2023-04-18T11:33:16.949Z,100888.38
2023-04-18T11:35:45.835Z,100931.56
2023-04-18T11:38:16.469Z,100908.47
2023-04-18T11:41:08.314Z,100885.97
2023-04-18T11:48:53.959Z,100809.56
2023-04-18T11:51:40.260Z,100928.00
2023-04-18T11:54:49.241Z,100932.06
2023-04-18T11:57:50.226Z,100880.88
2023-04-18T12:00:53.239Z,100928.66
2023-04-18T12:03:54.341Z,100899.06
2023-04-18T12:06:25.205Z,100936.19
2023-04-18T12:08:58.870Z,100911.38
2023-04-18T12:11:26.002Z,100909.69
2023-04-18T12:14:14.377Z,100894.34
2023-04-18T12:16:54.965Z,100872.63
2023-04-18T12:19:31.602Z,100874.75
2023-04-18T12:22:18.292Z,100922.03
2023-04-18T12:25:25.012Z,100911.44
2023-04-18T12:28:04.609Z,100921.09
2023-04-18T12:30:36.000Z,100877.38
2023-04-18T12:33:24.242Z,100903.13
2023-04-18T12:36:08.656Z,100910.97
2023-04-18T12:38:35.717Z,100848.38
2023-04-18T12:41:02.865Z,100895.25
2023-04-18T12:43:50.259Z,100877.59
2023-04-18T12:46:51.267Z,100897.97
2023-04-18T12:49:52.278Z,100863.47
2023-04-18T12:52:54.236Z,100877.56
2023-04-18T12:55:38.034Z,100875.41
2023-04-18T12:58:05.009Z,100896.63
2023-04-18T13:00:32.638Z,100844.19
2023-04-18T13:03:00.114Z,100899.47
2023-04-18T13:05:47.310Z,100865.72
2023-04-18T13:08:48.285Z,100916.91
2023-04-18T13:11:49.731Z,100894.09
2023-04-18T13:14:16.723Z,100870.59
2023-04-18T13:16:44.158Z,100808.59
2023-04-18T13:19:11.512Z,100884.97
2023-04-18T13:21:58.339Z,100861.50
2023-04-18T13:24:38.910Z,100834.06
2023-04-18T13:27:10.597Z,100874.69
2023-04-18T13:29:39.710Z,100898.94
2023-04-18T13:32:07.367Z,100858.63
2023-04-18T13:34:59.300Z,100893.22
2023-04-18T13:37:39.936Z,100850.53
2023-04-18T13:40:27.333Z,100893.47
2023-04-18T13:43:28.278Z,100882.25
2023-04-18T13:46:30.326Z,100899.69
2023-04-18T13:49:31.324Z,100870.69
2023-04-18T13:52:32.313Z,100864.13
2023-04-18T13:55:33.300Z,100847.72
2023-04-18T13:58:34.329Z,100805.22
2023-04-18T14:01:16.614Z,100878.97
2023-04-18T14:03:43.990Z,100895.56
2023-04-18T14:06:31.337Z,100884.81
2023-04-18T14:09:12.165Z,100869.59
2023-04-18T14:11:39.211Z,100886.09
2023-04-18T14:14:26.351Z,100910.75
2023-04-18T14:17:27.333Z,100874.34
2023-04-18T14:20:28.346Z,100880.22
2023-04-18T14:23:09.001Z,100898.81
2023-04-18T14:25:35.902Z,100850.44
2023-04-18T14:28:08.774Z,100901.22
2023-04-18T14:30:37.001Z,100901.13
2023-04-18T14:33:04.380Z,100916.34
2023-04-18T14:35:32.196Z,100857.03
2023-04-18T14:37:59.117Z,100841.09
2023-04-18T14:40:26.010Z,100916.44
2023-04-18T14:42:52.937Z,100876.53
2023-04-18T14:45:19.939Z,100895.91
2023-04-18T14:48:08.773Z,100904.78
2023-04-18T14:50:57.329Z,100885.72
2023-04-18T14:53:37.445Z,100887.56
2023-04-18T14:56:31.354Z,100880.00
2023-04-18T14:58:58.745Z,100916.44
2023-04-18T15:01:26.488Z,100895.06
2023-04-18T15:04:13.661Z,100905.53
2023-04-18T15:07:14.208Z,100921.22
2023-04-18T15:09:41.978Z,100917.22
2023-04-18T15:12:08.898Z,100838.69
2023-04-18T15:14:35.954Z,100921.84
2023-04-18T15:17:05.880Z,100874.06
2023-04-18T15:19:32.906Z,100884.75
2023-04-18T15:22:20.339Z,100909.50
2023-04-18T15:25:14.419Z,100904.22
2023-04-18T15:27:54.979Z,100852.09
2023-04-18T15:30:22.745Z,100879.50
2023-04-18T15:32:49.801Z,100894.53
2023-04-18T15:35:17.238Z,100917.47
2023-04-18T15:37:44.334Z,100862.69
2023-04-18T15:40:16.135Z,100907.78
2023-04-18T15:42:43.838Z,100913.09
2023-04-18T15:45:11.770Z,100896.28
2023-04-18T15:47:38.926Z,100881.28
2023-04-18T15:50:07.021Z,100894.53
2023-04-18T15:52:34.135Z,100883.03
2023-04-18T15:55:01.125Z,100868.00
2023-04-18T15:57:29.870Z,100904.22
2023-04-18T15:59:57.257Z,100790.25
2023-04-18T16:02:25.394Z,100926.31
2023-04-18T16:04:52.493Z,100916.63
2023-04-18T16:07:19.439Z,100924.56
2023-04-18T16:10:06.398Z,100897.16
2023-04-18T16:12:46.983Z,100868.88
2023-04-18T16:15:14.044Z,100899.81
2023-04-18T16:18:01.414Z,100895.38
2023-04-18T16:21:02.419Z,100876.81
2023-04-18T16:24:03.398Z,100897.09
2023-04-18T16:26:43.920Z,100893.53
2023-04-18T16:29:11.128Z,100929.78
2023-04-18T16:31:38.177Z,100914.72
2023-04-18T16:34:05.528Z,100939.41
2023-04-18T16:36:53.467Z,100912.91
2023-04-18T16:39:35.205Z,100860.69
2023-04-18T16:42:03.659Z,100806.69
2023-04-18T16:44:30.891Z,100896.88
2023-04-18T16:47:18.408Z,100910.09
2023-04-18T16:49:59.128Z,100908.34
2023-04-18T16:52:46.437Z,100922.44
2023-04-18T16:55:27.145Z,100835.66
2023-04-18T16:57:54.101Z,100926.72
2023-04-18T17:00:21.300Z,100906.28
2023-04-18T17:02:48.411Z,100935.44
2023-04-18T17:05:35.472Z,100904.41
2023-04-18T17:08:37.427Z,100871.66
2023-04-18T17:11:17.995Z,100868.00
2023-04-18T17:13:45.011Z,100878.59
2023-04-18T17:16:32.448Z,100907.00
2023-04-18T17:19:33.434Z,100865.25
2023-04-18T17:22:37.494Z,100898.84
2023-04-18T17:25:38.422Z,100867.91
2023-04-18T17:28:19.006Z,100947.56
2023-04-18T17:30:46.454Z,100920.03
2023-04-18T17:33:13.353Z,100919.94
2023-04-18T17:35:41.606Z,100890.47
2023-04-18T17:38:10.645Z,100902.66
2023-04-18T17:40:37.723Z,100941.72
2023-04-18T17:43:04.739Z,100920.16
2023-04-18T17:45:31.650Z,100935.78
2023-04-18T17:48:18.429Z,100944.47
2023-04-18T17:51:19.437Z,100906.16
2023-04-18T17:54:20.431Z,100929.22
2023-04-18T17:57:02.029Z,100880.47
2023-04-18T17:59:29.519Z,100952.19
2023-04-18T18:01:56.775Z,100903.19
2023-04-18T18:04:26.528Z,100859.66
2023-04-18T18:06:57.591Z,100958.91
2023-04-18T18:09:24.567Z,100935.78
2023-04-18T18:11:52.966Z,100932.03
2023-04-18T18:14:21.645Z,100908.88
2023-04-18T18:17:08.606Z,100943.97
2023-04-18T18:20:09.862Z,100956.50
2023-04-18T18:23:10.702Z,100973.16
2023-04-18T18:26:13.472Z,100945.53
2023-04-18T18:28:54.137Z,100962.69
2023-04-18T18:31:24.967Z,100933.22
2023-04-18T18:33:52.378Z,100979.25
2023-04-18T18:36:19.288Z,100984.47
2023-04-18T18:38:46.202Z,100985.19
2023-04-18T18:41:13.130Z,100962.66
2023-04-18T18:43:40.233Z,100919.91
2023-04-18T18:46:07.218Z,100981.97
2023-04-18T18:48:37.033Z,100969.91
2023-04-18T18:51:04.060Z,100999.91
2023-04-18T18:53:30.979Z,100914.63
2023-04-18T18:56:18.506Z,100951.59
2023-04-18T18:59:19.504Z,101012.03
2023-04-18T19:02:20.779Z,100988.88
2023-04-18T19:05:01.089Z,100997.63
2023-04-18T19:07:29.950Z,100967.31
2023-04-18T19:09:57.207Z,101019.69
2023-04-18T19:12:24.152Z,100963.88
2023-04-18T19:15:04.564Z,100981.72
2023-04-18T19:17:45.565Z,101019.91
2023-04-18T19:20:32.540Z,101039.16
2023-04-18T19:23:34.511Z,100942.31
2023-04-18T19:26:23.186Z,101008.72
2023-04-18T19:28:50.258Z,101017.47
2023-04-18T19:31:17.264Z,101042.19
2023-04-18T19:33:44.288Z,101008.31
2023-04-18T19:36:11.222Z,101006.63
2023-04-18T19:38:38.144Z,101007.31
2023-04-18T19:41:05.118Z,101052.00
2023-04-18T19:43:32.236Z,101030.63
2023-04-18T19:45:59.343Z,100950.81
2023-04-18T19:48:26.360Z,101036.22
2023-04-18T19:50:53.340Z,100919.91
2023-04-18T19:53:20.649Z,100992.94
2023-04-18T19:56:07.546Z,101051.69
2023-04-18T19:58:49.152Z,101007.34
2023-04-18T20:01:18.397Z,100989.75
2023-04-18T20:03:46.062Z,101062.47
2023-04-18T20:06:13.794Z,101059.91
2023-04-18T20:08:45.869Z,101055.44
2023-04-18T20:11:14.375Z,101034.97
2023-04-18T20:13:41.650Z,101038.53
2023-04-18T20:16:09.619Z,101074.06
2023-04-18T20:18:50.188Z,101056.13
2023-04-18T20:21:43.533Z,101048.13
2023-04-18T20:24:28.046Z,101056.91
2023-04-18T20:26:55.078Z,101066.59
2023-04-18T20:29:42.592Z,101070.00
2023-04-18T20:32:32.209Z,101038.09
2023-04-18T20:35:00.043Z,101042.47
2023-04-18T20:37:27.898Z,101037.22
2023-04-18T20:39:55.850Z,101069.06
2023-04-18T20:42:23.667Z,101082.03
2023-04-18T20:44:51.429Z,101093.56
2023-04-18T20:47:18.443Z,101032.19
2023-04-18T20:49:45.872Z,101076.50
2023-04-18T20:52:14.499Z,101006.34
2023-04-18T20:54:41.891Z,101096.06
2023-04-18T20:57:08.843Z,101017.84
2023-04-18T20:59:35.894Z,101072.16
2023-04-18T21:02:03.531Z,101072.88
2023-04-18T21:04:30.836Z,101097.75
2023-04-18T21:06:58.001Z,101082.69
2023-04-18T21:09:24.970Z,101056.59
2023-04-18T21:11:52.004Z,101107.16
2023-04-18T21:14:19.992Z,101110.34
2023-04-18T21:16:46.950Z,101093.50
2023-04-18T21:19:13.896Z,101082.84
2023-04-18T21:22:00.583Z,101100.59
2023-04-18T21:25:01.549Z,101082.50
2023-04-18T21:27:42.127Z,101038.00
2023-04-18T21:30:09.183Z,101045.81
2023-04-18T21:32:36.397Z,101091.16
2023-04-18T21:35:03.692Z,101016.63
2023-04-18T21:37:31.644Z,101117.63
2023-04-18T21:39:58.508Z,101121.88
2023-04-18T21:42:25.433Z,101125.25
2023-04-18T21:44:52.351Z,101086.91
2023-04-18T21:47:19.545Z,101083.13
2023-04-18T21:49:46.509Z,101085.66
2023-04-18T21:52:13.606Z,101090.78
2023-04-18T21:55:00.608Z,101118.44
2023-04-18T21:57:41.220Z,101092.66
2023-04-18T22:00:10.650Z,101131.03
2023-04-18T22:02:40.068Z,101105.94
2023-04-18T22:05:08.093Z,101034.84
2023-04-18T22:07:43.222Z,101077.63
2023-04-18T22:10:18.468Z,101143.22
2023-04-18T22:12:45.898Z,101105.34
2023-04-18T22:15:12.899Z,101145.75
2023-04-18T22:17:41.518Z,100979.63
2023-04-18T22:20:28.631Z,101091.69
2023-04-18T22:23:09.345Z,101129.75
2023-04-18T22:25:36.405Z,101104.84
2023-04-18T22:28:04.335Z,101150.13
2023-04-18T22:30:31.965Z,101149.03
2023-04-18T22:32:59.336Z,101138.13
2023-04-18T22:35:26.858Z,101142.78
2023-04-18T22:37:53.906Z,101138.25
2023-04-18T22:40:20.853Z,101131.00
2023-04-18T22:42:47.802Z,101138.88
2023-04-18T22:45:15.550Z,101021.97
2023-04-18T22:47:42.550Z,101043.88
2023-04-18T22:50:09.918Z,101143.03
2023-04-18T22:52:36.897Z,101131.41
2023-04-18T22:55:04.115Z,101174.94
2023-04-18T22:57:31.356Z,101109.69
2023-04-18T22:59:58.364Z,101162.31
2023-04-18T23:02:25.455Z,101163.44
2023-04-18T23:04:53.407Z,101150.31
2023-04-18T23:07:20.334Z,101047.69
2023-04-18T23:09:47.277Z,101152.53
2023-04-18T23:12:14.324Z,101082.81
2023-04-18T23:14:41.983Z,101148.44
2023-04-18T23:17:09.016Z,101149.59
2023-04-18T23:19:36.092Z,101142.25
2023-04-18T23:22:22.640Z,101148.28
2023-04-18T23:25:23.680Z,101164.63
2023-04-18T23:28:04.415Z,101163.53
2023-04-18T23:30:31.424Z,101141.19
2023-04-18T23:32:58.358Z,101149.88
2023-04-18T23:35:25.363Z,101059.94
2023-04-18T23:37:52.212Z,101135.16
2023-04-18T23:40:39.646Z,101145.56
2023-04-18T23:43:33.591Z,101122.50
2023-04-18T23:46:00.977Z,101176.38
2023-04-18T23:48:28.011Z,101127.09
2023-04-18T23:50:54.982Z,101151.34
2023-04-18T23:53:22.841Z,101026.25
2023-04-18T23:55:51.088Z,101136.91
2023-04-18T23:58:18.300Z,101129.75
